KLCK/LCK METAR and TAF weather

Enter ICAO airport designator
Station Type Date Time Source
KLCK METAR 2020/09/18 16:55 UTC NOAA

KLCK 181655Z AUTO 02011G19KT 10SM CLR 18/06 A3019 RMK AO2 T01780058


Station Type Date Time Source
KLCK Decoded METAR 2020/09/18 16:55 UTC NOAA

Rickenbacker Air National Guard Base, OH, United States (KLCK) 39-49N 082-56W
Sep 18, 2020 - 12:55 PM EDT / 2020.09.18 1655 UTC
Wind: from the NNE (020 degrees) at 13 MPH (11 KT) gusting to 22 MPH (19 KT):0
Visibility: 10 mile(s):0
Sky conditions: clear
Temperature: 64.0 F (17.8 C)
Dew Point: 42.4 F (5.8 C)
Relative Humidity: 45%
Pressure (altimeter): 30.19 in. Hg (1022 hPa)
ob: KLCK 181655Z AUTO 02011G19KT 10SM CLR 18/06 A3019 RMK AO2 T01780058
cycle: 17

Station Type Date Time Source
KLCK TAF 2020/09/18 18:24 UTC NOAA

TAF KLCK 181721Z 1818/1918 01012G19KT P6SM FEW030
FM190100 02006KT P6SM SKC
FM191300 05008KT P6SM SKC

Example: see airport list